createdAt,value
2018-06-08T00:02:16.062Z,25.80
2018-06-08T00:04:42.542Z,25.80
2018-06-08T00:07:08.952Z,25.80
2018-06-08T00:09:35.379Z,25.80
2018-06-08T00:12:01.796Z,25.80
2018-06-08T00:14:28.282Z,25.80
2018-06-08T00:16:54.712Z,25.90
2018-06-08T00:19:21.103Z,25.70
2018-06-08T00:21:47.541Z,25.80
2018-06-08T00:24:13.933Z,25.80
2018-06-08T00:26:40.337Z,25.80
2018-06-08T00:29:06.725Z,25.80
2018-06-08T00:31:33.151Z,25.80
2018-06-08T00:33:59.537Z,25.80
2018-06-08T00:36:25.957Z,25.80
2018-06-08T00:38:52.357Z,25.80
2018-06-08T00:41:18.765Z,25.80
2018-06-08T00:43:45.164Z,25.80
2018-06-08T00:46:11.728Z,25.80
2018-06-08T00:48:38.190Z,25.80
2018-06-08T00:51:04.670Z,25.90
2018-06-08T00:53:31.170Z,25.80
2018-06-08T00:55:57.735Z,25.90
2018-06-08T00:58:24.275Z,25.90
2018-06-08T01:00:50.833Z,25.80
2018-06-08T01:03:17.272Z,25.90
2018-06-08T01:05:43.753Z,25.90
2018-06-08T01:08:10.274Z,25.90
2018-06-08T01:10:36.831Z,25.90
2018-06-08T01:13:03.366Z,25.90
2018-06-08T01:15:29.847Z,25.90
2018-06-08T01:17:56.364Z,25.80
2018-06-08T01:20:23.446Z,25.80
2018-06-08T01:22:49.941Z,25.80
2018-06-08T01:25:16.384Z,25.80
2018-06-08T01:27:42.877Z,25.70
2018-06-08T01:30:09.366Z,25.70
2018-06-08T01:32:35.883Z,25.70
2018-06-08T01:35:02.335Z,25.70
2018-06-08T01:37:28.833Z,25.70
2018-06-08T01:39:55.381Z,25.70
2018-06-08T01:45:02.718Z,25.70
2018-06-08T01:47:29.205Z,25.70
2018-06-08T01:52:30.493Z,25.70
2018-06-08T01:54:56.984Z,25.60
2018-06-08T01:57:23.455Z,25.60
2018-06-08T01:59:49.915Z,25.60
2018-06-08T02:02:16.389Z,25.60
2018-06-08T02:04:42.867Z,25.60
2018-06-08T02:07:09.377Z,25.60
2018-06-08T02:09:35.853Z,25.60
2018-06-08T02:12:02.339Z,25.60
2018-06-08T02:14:28.827Z,25.60
2018-06-08T02:16:55.306Z,25.50
2018-06-08T02:19:22.114Z,25.60
2018-06-08T02:21:48.650Z,25.60
2018-06-08T02:24:15.179Z,25.50
2018-06-08T02:26:41.700Z,25.60
2018-06-08T02:29:08.233Z,25.60
2018-06-08T02:31:34.728Z,25.60
2018-06-08T02:34:01.210Z,25.60
2018-06-08T02:36:27.684Z,25.60
2018-06-08T02:38:54.244Z,25.60
2018-06-08T02:41:20.798Z,25.50
2018-06-08T02:43:47.257Z,25.50
2018-06-08T02:46:13.756Z,25.50
2018-06-08T02:48:40.231Z,25.60
2018-06-08T02:51:06.705Z,25.60
2018-06-08T02:53:33.155Z,25.60
2018-06-08T02:55:59.629Z,25.60
2018-06-08T02:58:26.087Z,25.60
2018-06-08T03:00:52.538Z,25.60
2018-06-08T03:03:19.023Z,25.60
2018-06-08T03:05:45.526Z,25.60
2018-06-08T03:08:11.978Z,25.70
2018-06-08T03:10:38.457Z,25.70
2018-06-08T03:13:04.932Z,25.70
2018-06-08T03:15:31.434Z,25.70
2018-06-08T03:17:57.912Z,25.70
2018-06-08T03:20:24.364Z,25.70
2018-06-08T03:22:50.846Z,25.70
2018-06-08T03:25:17.306Z,25.70
2018-06-08T03:27:43.818Z,25.70
2018-06-08T03:30:10.293Z,25.70
2018-06-08T03:32:37.173Z,25.70
2018-06-08T03:35:03.641Z,25.70
2018-06-08T03:37:30.121Z,25.70
2018-06-08T03:39:56.601Z,25.70
2018-06-08T03:42:23.579Z,25.70
2018-06-08T03:44:50.055Z,25.70
2018-06-08T03:47:16.512Z,25.70
2018-06-08T03:49:42.967Z,25.70
2018-06-08T03:52:09.988Z,25.70
2018-06-08T03:54:36.491Z,25.70
2018-06-08T03:57:03.039Z,25.70
2018-06-08T03:59:29.491Z,25.70
2018-06-08T04:01:55.954Z,25.70
2018-06-08T04:04:22.421Z,25.70
2018-06-08T04:06:48.887Z,25.70
2018-06-08T04:09:15.351Z,25.70
2018-06-08T04:11:42.463Z,25.70
2018-06-08T04:14:08.937Z,25.70
2018-06-08T04:16:35.406Z,25.70
2018-06-08T04:19:01.892Z,25.50
2018-06-08T04:21:28.351Z,25.70
2018-06-08T04:23:54.838Z,25.70
2018-06-08T04:26:21.297Z,25.70
2018-06-08T04:28:47.874Z,25.60
2018-06-08T04:31:14.376Z,25.60
2018-06-08T04:33:41.382Z,25.70
2018-06-08T04:38:35.098Z,25.60
2018-06-08T04:41:01.558Z,25.60
2018-06-08T04:43:28.070Z,25.60
2018-06-08T04:45:54.581Z,25.60
2018-06-08T04:48:21.074Z,25.50
2018-06-08T04:50:47.566Z,25.60
2018-06-08T04:53:14.144Z,25.50
2018-06-08T04:55:40.611Z,25.60
2018-06-08T04:58:07.059Z,25.50
2018-06-08T05:00:33.776Z,25.50
2018-06-08T05:03:00.233Z,25.60
2018-06-08T05:05:27.229Z,25.60
2018-06-08T05:07:53.672Z,25.60
2018-06-08T05:10:20.143Z,25.60
2018-06-08T05:12:46.583Z,25.70
2018-06-08T05:15:13.042Z,25.60
2018-06-08T05:17:39.479Z,25.60
2018-06-08T05:20:05.926Z,25.60
2018-06-08T05:22:32.412Z,25.60
2018-06-08T05:24:58.883Z,25.60
2018-06-08T05:27:25.362Z,25.60
2018-06-08T05:29:51.824Z,25.60
2018-06-08T05:32:19.016Z,25.60
2018-06-08T05:34:45.568Z,25.70
2018-06-08T05:37:12.089Z,25.60
2018-06-08T05:39:38.592Z,25.60
2018-06-08T05:42:05.104Z,25.60
2018-06-08T05:44:31.550Z,25.60
2018-06-08T05:46:58.023Z,25.70
2018-06-08T05:49:24.492Z,25.70
2018-06-08T05:51:50.964Z,25.70
2018-06-08T05:54:17.397Z,25.70
2018-06-08T05:56:43.842Z,25.70
2018-06-08T05:59:10.337Z,25.70
2018-06-08T06:01:36.826Z,25.80
2018-06-08T06:04:03.367Z,25.70
2018-06-08T06:06:29.922Z,25.70
2018-06-08T06:08:56.458Z,25.70
2018-06-08T06:11:22.894Z,25.80
2018-06-08T06:13:49.356Z,25.80
2018-06-08T06:16:15.859Z,25.80
2018-06-08T06:18:42.330Z,25.80
2018-06-08T06:21:08.785Z,25.80
2018-06-08T06:23:35.241Z,25.80
2018-06-08T06:26:01.709Z,25.80
2018-06-08T06:28:28.209Z,25.80
2018-06-08T06:30:54.713Z,25.70
2018-06-08T06:33:21.176Z,25.80
2018-06-08T06:35:47.658Z,25.80
2018-06-08T06:38:14.159Z,25.80
2018-06-08T06:40:40.612Z,25.80
2018-06-08T06:43:07.107Z,25.80
2018-06-08T06:45:33.621Z,25.70
2018-06-08T06:48:00.090Z,25.70
2018-06-08T06:50:26.552Z,25.60
2018-06-08T06:52:53.026Z,25.60
2018-06-08T06:57:46.467Z,25.60
2018-06-08T07:00:12.928Z,25.60
2018-06-08T07:02:40.202Z,25.50
2018-06-08T07:05:06.668Z,25.50
2018-06-08T07:07:33.697Z,25.50
2018-06-08T07:10:00.222Z,25.50
2018-06-08T07:12:26.700Z,25.50
2018-06-08T07:14:53.233Z,25.50
2018-06-08T07:17:19.709Z,25.50
2018-06-08T07:19:46.163Z,25.50
2018-06-08T07:22:13.661Z,25.50
2018-06-08T07:24:40.157Z,25.40
2018-06-08T07:27:06.671Z,25.50
2018-06-08T07:29:33.175Z,25.40
2018-06-08T07:31:59.684Z,25.40
2018-06-08T07:34:26.156Z,25.40
2018-06-08T07:36:52.709Z,25.40
2018-06-08T07:39:19.201Z,25.40
2018-06-08T07:41:45.687Z,25.30
2018-06-08T07:44:12.179Z,25.30
2018-06-08T07:46:38.627Z,25.40
2018-06-08T07:49:05.127Z,25.30
2018-06-08T07:51:31.616Z,25.40
2018-06-08T07:53:58.135Z,25.30
2018-06-08T07:56:24.671Z,25.30
2018-06-08T07:58:51.160Z,25.30
2018-06-08T08:01:17.603Z,25.30
2018-06-08T08:03:44.058Z,25.00
2018-06-08T08:06:10.553Z,25.00
2018-06-08T08:08:37.054Z,25.00
2018-06-08T08:11:03.513Z,25.10
2018-06-08T08:13:29.968Z,25.10
2018-06-08T08:15:57.021Z,25.20
2018-06-08T08:18:23.531Z,25.30
2018-06-08T08:20:50.027Z,25.40
2018-06-08T08:23:16.606Z,25.40
2018-06-08T08:25:43.132Z,25.40
2018-06-08T08:28:09.608Z,25.10
2018-06-08T08:30:36.109Z,25.20
2018-06-08T08:33:02.563Z,25.30
2018-06-08T08:35:29.044Z,25.30
2018-06-08T08:37:55.521Z,25.30
2018-06-08T08:40:21.990Z,25.20
2018-06-08T08:42:48.504Z,25.00
2018-06-08T08:45:14.995Z,25.00
2018-06-08T08:47:41.503Z,25.00
2018-06-08T08:50:07.991Z,25.10
2018-06-08T08:52:34.471Z,25.10
2018-06-08T08:55:00.916Z,25.10
2018-06-08T08:57:28.383Z,25.10
2018-06-08T08:59:54.863Z,25.20
2018-06-08T09:02:22.056Z,25.20
2018-06-08T09:04:48.512Z,25.30
2018-06-08T09:07:15.004Z,25.30
2018-06-08T09:09:41.492Z,25.40
2018-06-08T09:12:07.974Z,25.50
2018-06-08T09:14:34.530Z,25.50
2018-06-08T09:17:01.094Z,25.60
2018-06-08T09:19:27.582Z,25.60
2018-06-08T09:21:54.064Z,25.70
2018-06-08T09:24:21.186Z,25.70
2018-06-08T09:26:47.718Z,25.70
2018-06-08T09:29:14.174Z,25.70
2018-06-08T09:31:40.704Z,25.70
2018-06-08T09:34:07.176Z,25.70
2018-06-08T09:36:33.667Z,25.80
2018-06-08T09:39:00.144Z,25.80
2018-06-08T09:41:26.678Z,25.80
2018-06-08T09:43:53.150Z,25.70
2018-06-08T09:46:19.626Z,25.70
2018-06-08T09:48:46.169Z,25.70
2018-06-08T09:51:12.687Z,25.70
2018-06-08T09:53:39.187Z,25.70
2018-06-08T09:56:05.698Z,25.70
2018-06-08T09:58:32.170Z,25.70
2018-06-08T10:00:58.650Z,25.70
2018-06-08T10:03:25.120Z,25.80
2018-06-08T10:05:51.708Z,25.70
2018-06-08T10:08:18.252Z,25.70
2018-06-08T10:10:44.742Z,25.80
2018-06-08T10:15:38.180Z,25.80
2018-06-08T10:18:04.682Z,25.90
2018-06-08T10:20:31.189Z,26.00
2018-06-08T10:22:57.684Z,26.00
2018-06-08T10:25:24.157Z,26.00
2018-06-08T10:27:50.646Z,26.00
2018-06-08T10:30:17.117Z,26.00
2018-06-08T10:32:43.599Z,26.00
2018-06-08T10:35:10.100Z,26.10
2018-06-08T10:37:36.618Z,26.00
2018-06-08T10:40:03.163Z,26.10
2018-06-08T10:42:29.607Z,26.10
2018-06-08T10:44:56.139Z,26.10
2018-06-08T10:47:22.680Z,26.20
2018-06-08T10:49:49.330Z,26.20
2018-06-08T10:52:15.829Z,26.20
2018-06-08T10:54:42.277Z,26.30
2018-06-08T10:57:08.848Z,26.20
2018-06-08T10:59:35.343Z,26.20
2018-06-08T11:02:01.863Z,26.20
2018-06-08T11:04:28.314Z,26.20
2018-06-08T11:06:54.822Z,26.20
2018-06-08T11:09:21.296Z,26.20
2018-06-08T11:11:47.799Z,26.10
2018-06-08T11:14:14.393Z,26.10
2018-06-08T11:16:40.907Z,26.10
2018-06-08T11:21:34.972Z,26.10
2018-06-08T11:24:01.593Z,26.10
2018-06-08T11:26:28.183Z,26.10
2018-06-08T11:28:54.819Z,26.10
2018-06-08T11:31:21.347Z,26.10
2018-06-08T11:33:48.255Z,26.00
2018-06-08T11:36:14.741Z,26.10
2018-06-08T11:38:41.251Z,26.10
2018-06-08T11:41:07.768Z,26.00
2018-06-08T11:43:34.257Z,26.10
2018-06-08T11:46:00.711Z,26.10
2018-06-08T11:48:27.170Z,26.10
2018-06-08T11:50:53.667Z,26.00
2018-06-08T11:53:20.203Z,26.00
2018-06-08T11:55:46.625Z,26.00
2018-06-08T11:58:13.120Z,26.10
2018-06-08T12:00:39.625Z,26.10
2018-06-08T12:03:06.113Z,26.10
2018-06-08T12:05:32.607Z,26.10
2018-06-08T12:07:59.099Z,26.10
2018-06-08T12:10:25.611Z,26.10
2018-06-08T12:12:52.089Z,26.10
2018-06-08T12:15:18.583Z,26.10
2018-06-08T12:17:45.039Z,26.10
2018-06-08T12:20:11.506Z,26.10
2018-06-08T12:22:40.759Z,26.10
2018-06-08T12:25:07.285Z,26.10
2018-06-08T12:27:33.752Z,26.10
2018-06-08T12:30:00.241Z,26.10
2018-06-08T12:32:26.735Z,26.10
2018-06-08T12:34:53.263Z,26.00
2018-06-08T12:37:19.737Z,26.00
2018-06-08T12:39:46.199Z,26.00
2018-06-08T12:42:12.675Z,26.00
2018-06-08T12:44:39.171Z,26.00
2018-06-08T12:47:05.693Z,26.00
2018-06-08T12:49:32.169Z,26.10
2018-06-08T12:51:58.689Z,26.10
2018-06-08T12:54:25.176Z,26.10
2018-06-08T12:56:51.684Z,26.10
2018-06-08T12:59:18.128Z,26.10
2018-06-08T13:01:44.628Z,26.10
2018-06-08T13:04:11.115Z,26.00
2018-06-08T13:06:37.576Z,26.10
2018-06-08T13:09:04.057Z,26.10
2018-06-08T13:11:30.521Z,26.10
2018-06-08T13:13:56.999Z,26.20
2018-06-08T13:16:23.487Z,26.20
2018-06-08T13:18:50.004Z,26.20
2018-06-08T13:21:16.507Z,26.20
2018-06-08T13:23:42.916Z,26.30
2018-06-08T13:26:09.483Z,26.20
2018-06-08T13:28:35.978Z,26.20
2018-06-08T13:31:02.463Z,26.30
2018-06-08T13:33:28.883Z,26.30
2018-06-08T13:35:55.337Z,26.30
2018-06-08T13:38:21.809Z,26.20
2018-06-08T13:40:48.304Z,26.50
2018-06-08T13:43:14.863Z,26.80
2018-06-08T13:45:41.333Z,26.50
2018-06-08T13:48:07.860Z,26.50
2018-06-08T13:50:34.310Z,26.50
2018-06-08T13:53:00.790Z,26.50
2018-06-08T13:55:27.293Z,26.60
2018-06-08T13:57:53.754Z,26.90
2018-06-08T14:00:20.217Z,26.90
2018-06-08T14:02:46.757Z,26.80
2018-06-08T14:05:13.262Z,27.10
2018-06-08T14:07:39.748Z,26.90
2018-06-08T14:10:06.234Z,26.70
2018-06-08T14:12:32.746Z,26.60
2018-06-08T14:14:59.231Z,25.90
2018-06-08T14:17:25.686Z,26.60
2018-06-08T14:19:52.182Z,26.50
2018-06-08T14:22:18.665Z,26.60
2018-06-08T14:24:45.133Z,26.60
2018-06-08T14:27:11.657Z,26.50
2018-06-08T14:29:38.158Z,26.60
2018-06-08T14:32:04.625Z,26.50
2018-06-08T14:34:31.113Z,26.60
2018-06-08T14:36:57.617Z,26.60
2018-06-08T14:39:24.121Z,26.50
2018-06-08T14:41:50.610Z,26.60
2018-06-08T14:44:17.114Z,26.60
2018-06-08T14:46:43.611Z,26.60
2018-06-08T14:49:10.114Z,26.70
2018-06-08T14:51:36.643Z,26.70
2018-06-08T14:54:03.172Z,26.70
2018-06-08T14:56:29.727Z,26.70
2018-06-08T14:58:56.313Z,27.00
2018-06-08T15:01:22.855Z,27.10
2018-06-08T15:03:49.385Z,27.10
2018-06-08T15:06:15.922Z,27.00
2018-06-08T15:08:42.447Z,26.90
2018-06-08T15:11:08.950Z,27.10
2018-06-08T15:13:35.437Z,27.10
2018-06-08T15:16:01.899Z,27.10
2018-06-08T15:18:28.419Z,27.10
2018-06-08T15:20:54.921Z,26.90
2018-06-08T15:23:21.394Z,26.90
2018-06-08T15:25:47.925Z,26.80
2018-06-08T15:28:14.433Z,26.80
2018-06-08T15:30:40.930Z,26.80
2018-06-08T15:33:07.457Z,26.80
2018-06-08T15:35:33.928Z,26.80
2018-06-08T15:38:00.447Z,26.80
2018-06-08T15:40:26.979Z,26.80
2018-06-08T15:42:53.432Z,26.80
2018-06-08T15:45:19.948Z,26.80
2018-06-08T15:47:46.443Z,26.80
2018-06-08T15:50:12.968Z,26.80
2018-06-08T15:52:39.480Z,26.90
2018-06-08T15:55:05.961Z,26.80
2018-06-08T15:57:32.543Z,26.80
2018-06-08T15:59:59.173Z,26.80
2018-06-08T16:02:25.653Z,26.90
2018-06-08T16:04:52.149Z,26.80
2018-06-08T16:07:18.656Z,26.90
2018-06-08T16:09:45.276Z,26.90
2018-06-08T16:12:12.401Z,26.90
2018-06-08T16:14:38.871Z,26.90
2018-06-08T16:17:05.328Z,26.80
2018-06-08T16:19:31.927Z,26.80
2018-06-08T16:21:58.394Z,26.80
2018-06-08T16:26:51.934Z,26.80
2018-06-08T16:29:18.411Z,26.70
2018-06-08T16:31:44.917Z,26.70
2018-06-08T16:34:11.428Z,26.70
2018-06-08T16:36:38.055Z,26.70
2018-06-08T16:39:04.585Z,26.60
2018-06-08T16:41:31.081Z,26.60
2018-06-08T16:43:57.579Z,26.60
2018-06-08T16:46:24.072Z,26.60
2018-06-08T16:48:51.061Z,26.50
2018-06-08T16:51:17.571Z,26.60
2018-06-08T16:53:44.065Z,26.50
2018-06-08T16:56:10.541Z,26.50
2018-06-08T16:58:37.027Z,26.50
2018-06-08T17:01:03.538Z,26.50
2018-06-08T17:03:30.011Z,26.50
2018-06-08T17:05:56.498Z,26.40
2018-06-08T17:08:23.030Z,26.40
2018-06-08T17:10:49.538Z,26.40
2018-06-08T17:13:17.615Z,26.40
2018-06-08T17:15:44.209Z,26.40
2018-06-08T17:18:10.751Z,26.40
2018-06-08T17:20:37.240Z,26.40
2018-06-08T17:25:30.713Z,26.30
2018-06-08T17:27:57.208Z,26.30
2018-06-08T17:30:23.678Z,26.30
2018-06-08T17:32:50.404Z,26.40
2018-06-08T17:35:16.904Z,26.30
2018-06-08T17:40:10.499Z,26.30
2018-06-08T17:42:36.964Z,26.30
2018-06-08T17:45:03.484Z,26.30
2018-06-08T17:47:30.038Z,26.30
2018-06-08T17:49:56.568Z,26.30
2018-06-08T17:52:23.084Z,26.30
2018-06-08T17:54:49.569Z,26.30
2018-06-08T17:57:16.142Z,26.30
2018-06-08T17:59:43.206Z,26.30
2018-06-08T18:02:11.447Z,26.30
2018-06-08T18:04:37.924Z,26.30
2018-06-08T18:07:04.492Z,26.30
2018-06-08T18:09:31.008Z,26.30
2018-06-08T18:11:57.621Z,26.30
2018-06-08T18:14:24.097Z,26.30
2018-06-08T18:16:50.572Z,26.40
2018-06-08T18:19:17.054Z,26.50
2018-06-08T18:21:43.542Z,26.50
2018-06-08T18:24:10.063Z,26.50
2018-06-08T18:26:36.572Z,26.50
2018-06-08T18:29:03.600Z,26.50
2018-06-08T18:31:30.809Z,26.30
2018-06-08T18:33:57.913Z,26.50
2018-06-08T18:36:24.403Z,26.50
2018-06-08T18:38:50.896Z,26.50
2018-06-08T18:41:17.503Z,26.50
2018-06-08T18:43:44.034Z,26.60
2018-06-08T18:46:11.193Z,26.60
2018-06-08T18:48:37.687Z,26.60
2018-06-08T18:51:04.194Z,26.50
2018-06-08T18:53:30.683Z,26.50
2018-06-08T18:55:57.703Z,26.60
2018-06-08T18:58:24.355Z,26.60
2018-06-08T19:00:50.877Z,26.60
2018-06-08T19:03:17.376Z,26.60
2018-06-08T19:05:43.859Z,26.60
2018-06-08T19:08:10.445Z,26.60
2018-06-08T19:10:36.943Z,26.60
2018-06-08T19:13:03.449Z,26.60
2018-06-08T19:15:29.955Z,26.60
2018-06-08T19:17:56.441Z,26.60
2018-06-08T19:20:22.914Z,26.60
2018-06-08T19:22:49.455Z,26.50
2018-06-08T19:25:15.959Z,26.50
2018-06-08T19:27:42.443Z,26.50
2018-06-08T19:30:08.957Z,26.50
2018-06-08T19:32:35.768Z,26.50
2018-06-08T19:35:02.316Z,26.50
2018-06-08T19:37:28.846Z,26.60
2018-06-08T19:39:55.341Z,26.50
2018-06-08T19:42:22.171Z,26.50
2018-06-08T19:44:48.629Z,26.50
2018-06-08T19:47:15.085Z,26.50
2018-06-08T19:49:41.559Z,26.40
2018-06-08T19:52:08.025Z,26.50
2018-06-08T19:54:34.575Z,26.50
2018-06-08T19:57:01.065Z,26.50
2018-06-08T19:59:27.537Z,26.40
2018-06-08T20:01:54.019Z,26.40
2018-06-08T20:04:20.512Z,26.40
2018-06-08T20:06:47.034Z,26.40
2018-06-08T20:09:13.509Z,26.40
2018-06-08T20:11:39.962Z,26.30
2018-06-08T20:14:06.455Z,26.30
2018-06-08T20:16:32.928Z,26.30
2018-06-08T20:18:59.691Z,26.30
2018-06-08T20:21:26.191Z,26.20
2018-06-08T20:23:52.713Z,26.20
2018-06-08T20:26:19.269Z,26.20
2018-06-08T20:28:45.756Z,26.20
2018-06-08T20:31:12.316Z,26.30
2018-06-08T20:33:38.874Z,26.20
2018-06-08T20:36:05.366Z,26.20
2018-06-08T20:38:31.826Z,26.20
2018-06-08T20:40:58.260Z,26.20
2018-06-08T20:43:24.741Z,26.20
2018-06-08T20:45:51.176Z,26.20
2018-06-08T20:48:17.766Z,26.10
2018-06-08T20:50:44.304Z,26.20
2018-06-08T20:53:10.829Z,26.10
2018-06-08T20:55:37.512Z,26.10
2018-06-08T20:58:04.094Z,26.10
2018-06-08T21:00:30.651Z,26.10
2018-06-08T21:02:57.129Z,26.00
2018-06-08T21:05:23.624Z,26.00
2018-06-08T21:07:50.116Z,26.10
2018-06-08T21:10:16.605Z,26.10
2018-06-08T21:12:43.106Z,26.10
2018-06-08T21:15:09.638Z,26.10
2018-06-08T21:17:36.105Z,26.20
2018-06-08T21:20:02.621Z,26.20
2018-06-08T21:22:29.119Z,26.20
2018-06-08T21:24:55.608Z,26.20
2018-06-08T21:27:22.094Z,26.20
2018-06-08T21:29:48.605Z,26.20
2018-06-08T21:32:15.090Z,26.20
2018-06-08T21:34:41.518Z,26.20
2018-06-08T21:37:08.004Z,26.20
2018-06-08T21:39:34.515Z,26.20
2018-06-08T21:42:00.967Z,26.20
2018-06-08T21:44:27.471Z,26.20
2018-06-08T21:46:53.918Z,26.20
2018-06-08T21:49:20.370Z,26.20
2018-06-08T21:51:46.807Z,26.30
2018-06-08T21:54:13.278Z,26.30
2018-06-08T21:56:39.745Z,26.30
2018-06-08T21:59:06.222Z,26.30
2018-06-08T22:01:32.641Z,26.30
2018-06-08T22:03:59.119Z,26.30
2018-06-08T22:06:25.607Z,26.30
2018-06-08T22:08:52.114Z,26.30
2018-06-08T22:11:18.611Z,26.30
2018-06-08T22:13:45.068Z,26.30
2018-06-08T22:16:11.534Z,26.30
2018-06-08T22:18:38.035Z,26.30
2018-06-08T22:21:04.491Z,26.20
2018-06-08T22:23:31.000Z,26.30
2018-06-08T22:25:57.513Z,26.30
2018-06-08T22:28:23.994Z,26.20
2018-06-08T22:30:50.449Z,26.30
2018-06-08T22:33:16.935Z,26.30
2018-06-08T22:35:43.447Z,26.30
2018-06-08T22:38:09.921Z,26.30
2018-06-08T22:40:36.386Z,26.30
2018-06-08T22:43:02.847Z,26.30
2018-06-08T22:45:29.291Z,26.30
2018-06-08T22:47:55.760Z,26.30
2018-06-08T22:50:22.203Z,26.30
2018-06-08T22:52:48.671Z,26.30
2018-06-08T22:55:15.176Z,26.30
2018-06-08T22:57:41.624Z,26.30
2018-06-08T23:00:08.085Z,26.30
2018-06-08T23:02:34.504Z,26.30
2018-06-08T23:05:00.989Z,26.30
2018-06-08T23:07:27.489Z,26.30
2018-06-08T23:09:53.983Z,26.20
2018-06-08T23:12:20.499Z,26.30
2018-06-08T23:14:46.971Z,27.20
2018-06-08T23:17:13.602Z,26.30
2018-06-08T23:19:40.063Z,26.20
2018-06-08T23:22:06.632Z,26.20
2018-06-08T23:24:33.092Z,26.20
2018-06-08T23:26:59.591Z,26.20
2018-06-08T23:29:26.098Z,26.20
2018-06-08T23:31:52.582Z,26.10
2018-06-08T23:34:19.028Z,26.10
2018-06-08T23:36:45.466Z,26.10
2018-06-08T23:39:11.912Z,26.10
2018-06-08T23:41:39.072Z,26.10
2018-06-08T23:44:06.158Z,26.10
2018-06-08T23:46:32.632Z,26.00
2018-06-08T23:48:59.220Z,26.00
2018-06-08T23:51:25.718Z,26.00
2018-06-08T23:53:52.196Z,26.00
2018-06-08T23:56:18.699Z,26.00
2018-06-08T23:58:45.194Z,26.00
